Time;durP1;ratioP1;P1;durP2;ratioP2;P2;SDS_P1;SDS_P2;PMS_P1;PMS_P2;Temp;Humidity;BMP_temperature;BMP_pressure;BME280_temperature;BME280_humidity;BME280_pressure;Samples;Min_cycle;Max_cycle;Signal;HPM_P1;HPM_P2
2022/03/22 00:00:16;;;;;;;60.97;30.83;;;;;;;2.93;38.91;100522.03;4934194;29;20042;-67
2022/03/22 00:02:42;;;;;;;66.40;32.17;;;;;;;2.94;38.70;100526.41;4933971;29;20415;-67
2022/03/22 00:05:08;;;;;;;95.97;42.75;;;;;;;2.93;39.17;100522.03;4933684;29;20066;-68
2022/03/22 00:07:33;;;;;;;145.65;55.47;;;;;;;2.93;38.90;100527.44;4931524;29;20026;-68
2022/03/22 00:09:59;;;;;;;157.35;63.45;;;;;;;2.94;38.76;100525.56;4934008;29;20027;-68
2022/03/22 00:12:24;;;;;;;158.48;69.18;;;;;;;2.94;38.92;100523.69;4948348;28;20034;-68
2022/03/22 00:14:50;;;;;;;149.70;73.50;;;;;;;2.96;38.74;100526.19;4933887;29;20638;-68
2022/03/22 00:17:15;;;;;;;95.00;46.33;;;;;;;2.97;38.70;100530.59;4938626;28;20030;-68
2022/03/22 00:19:41;;;;;;;85.28;39.03;;;;;;;2.97;38.45;100525.16;4933773;29;20023;-67
2022/03/22 00:22:06;;;;;;;67.07;31.30;;;;;;;2.94;39.07;100534.53;4933784;29;20024;-69
2022/03/22 00:24:32;;;;;;;63.22;29.17;;;;;;;2.95;39.46;100528.09;4933452;29;20024;-68
2022/03/22 00:26:57;;;;;;;66.18;30.45;;;;;;;2.94;39.09;100526.41;4933244;29;20495;-68
2022/03/22 00:29:22;;;;;;;66.45;30.65;;;;;;;2.96;38.84;100523.50;4934198;29;20023;-68
2022/03/22 00:31:48;;;;;;;65.53;30.13;;;;;;;2.89;38.69;100531.56;4934180;29;20043;-68
2022/03/22 00:34:13;;;;;;;61.47;29.88;;;;;;;2.82;38.97;100528.81;4931251;29;20146;-68
2022/03/22 00:36:40;;;;;;;58.05;28.55;;;;;;;2.75;38.70;100527.91;4929752;28;20022;-67
2022/03/22 00:39:06;;;;;;;61.88;29.60;;;;;;;2.70;38.68;100529.50;4932501;29;20035;-69
2022/03/22 00:41:31;;;;;;;64.38;29.30;;;;;;;2.69;38.82;100534.09;4931046;29;20083;-68
2022/03/22 00:43:56;;;;;;;64.20;29.50;;;;;;;2.72;39.27;100538.28;4929576;29;20032;-68
2022/03/22 00:46:22;;;;;;;69.63;29.30;;;;;;;2.73;39.22;100532.69;4931493;29;20042;-68
2022/03/22 00:48:48;;;;;;;63.88;29.35;;;;;;;2.73;39.24;100531.81;4947879;28;20028;-68
2022/03/22 00:51:14;;;;;;;61.95;29.42;;;;;;;2.70;38.69;100529.50;4930840;29;20032;-68
2022/03/22 00:53:39;;;;;;;55.03;28.02;;;;;;;2.67;39.34;100530.72;4933746;29;20401;-67
2022/03/22 00:56:06;;;;;;;57.13;26.92;;;;;;;2.65;39.07;100532.81;4951298;28;20483;-67
2022/03/22 00:58:32;;;;;;;62.85;29.13;;;;;;;2.60;38.88;100533.38;4952345;28;20386;-68
2022/03/22 01:00:57;;;;;;;67.43;30.25;;;;;;;2.58;39.37;100521.91;4936951;29;20019;-68
2022/03/22 01:03:23;;;;;;;68.95;31.60;;;;;;;2.60;39.46;100522.56;4927650;29;20028;-68
2022/03/22 01:05:50;;;;;;;65.90;31.13;;;;;;;2.62;39.22;100523.19;4928664;29;20377;-67
2022/03/22 01:08:16;;;;;;;59.33;27.98;;;;;;;2.58;39.21;100521.03;4930999;29;20142;-68
2022/03/22 01:10:45;;;;;;;55.78;26.85;;;;;;;2.44;38.87;100526.34;4933059;29;20443;-68
2022/03/22 01:13:11;;;;;;;63.03;26.80;;;;;;;2.32;39.27;100520.56;4934713;29;20455;-68
2022/03/22 01:15:37;;;;;;;58.78;28.15;;;;;;;2.20;39.49;100527.53;4933039;29;20151;-68
2022/03/22 01:18:07;;;;;;;62.75;30.40;;;;;;;2.10;39.83;100526.97;4925457;29;20387;-68
2022/03/22 01:20:34;;;;;;;67.05;30.70;;;;;;;1.99;39.46;100526.44;4927069;29;20024;-68
2022/03/22 01:23:02;;;;;;;71.90;35.97;;;;;;;1.98;39.65;100521.22;4927476;29;20029;-68
2022/03/22 01:25:30;;;;;;;70.47;33.05;;;;;;;1.97;40.25;100519.53;4929445;29;20024;-68
2022/03/22 01:27:56;;;;;;;68.72;31.85;;;;;;;1.96;39.66;100523.28;4935472;29;21088;-68
2022/03/22 01:30:23;;;;;;;74.20;34.47;;;;;;;2.02;40.35;100523.34;4934294;29;20027;-67
2022/03/22 01:32:53;;;;;;;62.40;28.25;;;;;;;2.05;39.95;100514.84;4933726;29;20118;-68
2022/03/22 01:35:19;;;;;;;65.93;29.70;;;;;;;2.08;40.22;100516.31;4935876;29;20036;-68
2022/03/22 01:37:48;;;;;;;63.67;30.00;;;;;;;2.13;40.37;100519.31;4935550;29;20162;-68
2022/03/22 01:40:15;;;;;;;59.78;28.35;;;;;;;2.13;39.94;100519.31;4927548;29;20027;-68
2022/03/22 01:42:41;;;;;;;63.67;29.90;;;;;;;2.15;40.41;100514.53;4928326;29;20051;-68
2022/03/22 01:45:09;;;;;;;63.25;30.48;;;;;;;2.17;40.08;100507.06;4930874;29;20080;-68
2022/03/22 01:47:36;;;;;;;62.45;30.17;;;;;;;2.17;39.89;100517.91;4945312;29;20375;-68
2022/03/22 01:50:03;;;;;;;62.20;27.85;;;;;;;2.15;39.82;100511.84;4939799;29;20034;-68
2022/03/22 01:52:31;;;;;;;64.70;29.17;;;;;;;2.11;40.02;100531.38;4937342;29;20384;-68
2022/03/22 01:54:57;;;;;;;62.28;28.00;;;;;;;2.08;40.10;100517.19;4935090;29;20031;-67
2022/03/22 01:57:24;;;;;;;65.07;30.20;;;;;;;1.99;40.18;100507.47;4933148;29;20087;-67
2022/03/22 01:59:51;;;;;;;70.68;31.90;;;;;;;1.98;40.02;100516.63;4935484;29;20024;-68
2022/03/22 02:07:46;;;;;;;63.33;28.80;;;;;;;1.88;39.88;100510.66;4935384;29;20527;-67
2022/03/22 02:10:12;;;;;;;56.10;27.15;;;;;;;1.87;39.98;100512.53;4935146;29;20036;-67
2022/03/22 02:12:38;;;;;;;57.58;29.55;;;;;;;1.82;40.03;100511.44;4934834;29;20031;-69
2022/03/22 02:15:05;;;;;;;62.75;30.08;;;;;;;1.74;40.37;100510.50;4935229;29;20057;-68
2022/03/22 02:17:30;;;;;;;64.43;29.85;;;;;;;1.65;39.82;100514.31;4936440;29;20038;-68
2022/03/22 02:19:59;;;;;;;60.03;28.92;;;;;;;1.59;40.13;100518.63;4936372;29;20028;-68
2022/03/22 02:22:31;;;;;;;63.00;29.95;;;;;;;1.52;40.73;100516.84;4934268;29;20035;-68
2022/03/22 02:24:57;;;;;;;66.95;31.52;;;;;;;1.48;40.86;100516.38;4934633;29;20472;-69
2022/03/22 02:27:25;;;;;;;70.88;32.10;;;;;;;1.47;40.89;100523.63;4936311;29;20115;-68
2022/03/22 02:29:50;;;;;;;61.05;29.15;;;;;;;1.46;40.64;100507.59;4950940;28;20048;-68
2022/03/22 02:32:23;;;;;;;66.93;30.83;;;;;;;1.44;40.65;100513.19;4933506;29;20136;-68
2022/03/22 02:34:49;;;;;;;69.05;30.27;;;;;;;1.41;40.58;100513.59;4933383;29;20023;-68
2022/03/22 02:37:14;;;;;;;65.78;30.73;;;;;;;1.35;40.87;100511.63;4931763;29;20042;-68
2022/03/22 02:39:39;;;;;;;70.25;33.25;;;;;;;1.30;40.76;100514.84;4936761;29;20512;-68
2022/03/22 02:42:05;;;;;;;69.93;31.08;;;;;;;1.31;40.74;100511.13;4936134;29;20032;-68
2022/03/22 02:44:31;;;;;;;68.55;31.38;;;;;;;1.26;41.38;100518.94;4934798;29;20483;-69
2022/03/22 02:46:56;;;;;;;69.43;33.25;;;;;;;1.22;41.54;100508.69;4933278;29;20032;-68
2022/03/22 02:49:22;;;;;;;68.03;31.73;;;;;;;1.16;41.13;100513.00;4936035;29;20032;-68
2022/03/22 02:51:47;;;;;;;72.03;33.05;;;;;;;1.15;41.27;100512.13;4935765;29;20476;-68
2022/03/22 02:54:12;;;;;;;65.78;31.38;;;;;;;1.13;41.28;100508.78;4936242;29;20032;-69
2022/03/22 02:56:38;;;;;;;67.25;31.15;;;;;;;1.09;41.34;100509.34;4934240;29;20042;-68
2022/03/22 02:59:03;;;;;;;67.10;31.98;;;;;;;1.00;41.26;100506.69;4935814;29;20380;-68
2022/03/22 03:01:32;;;;;;;70.82;33.15;;;;;;;0.98;41.83;100516.03;4934663;29;20167;-68
2022/03/22 03:03:59;;;;;;;61.65;30.38;;;;;;;0.93;41.78;100513.03;4934093;29;20036;-68
2022/03/22 03:06:24;;;;;;;68.13;31.70;;;;;;;0.87;41.99;100514.56;4935284;29;20043;-68
2022/03/22 03:08:50;;;;;;;79.78;36.22;;;;;;;0.83;42.13;100515.94;4950364;29;20094;-68
2022/03/22 03:11:15;;;;;;;69.60;33.28;;;;;;;0.77;41.77;100514.81;4945678;28;20042;-68
2022/03/22 03:16:25;;;;;;;68.68;31.48;;;;;;;0.61;42.39;100518.50;4931513;29;20403;-68
2022/03/22 03:18:51;;;;;;;61.70;30.45;;;;;;;0.52;42.29;100527.66;4931721;29;20040;-68
2022/03/22 03:21:17;;;;;;;68.60;31.55;;;;;;;0.42;42.39;100523.34;4935714;29;20059;-68
2022/03/22 03:23:42;;;;;;;71.28;31.95;;;;;;;0.37;42.53;100523.06;4935785;29;20131;-68
2022/03/22 03:26:08;;;;;;;59.95;28.75;;;;;;;0.35;42.68;100526.94;4935774;29;20111;-68
2022/03/22 03:28:33;;;;;;;65.25;29.45;;;;;;;0.29;42.80;100529.31;4935841;29;20115;-69
2022/03/22 03:30:58;;;;;;;69.10;30.40;;;;;;;0.27;42.84;100525.13;4935882;29;20059;-68
2022/03/22 03:33:24;;;;;;;68.03;30.92;;;;;;;0.26;42.60;100526.97;4935360;29;20266;-68
2022/03/22 03:35:49;;;;;;;71.15;29.70;;;;;;;0.23;42.86;100534.59;4935518;29;20032;-68
2022/03/22 03:38:15;;;;;;;65.32;30.55;;;;;;;0.20;42.89;100529.56;4932002;29;20032;-68
2022/03/22 03:43:24;;;;;;;62.78;29.52;;;;;;;0.20;43.49;100534.94;4932054;29;20042;-69
2022/03/22 03:48:33;;;;;;;63.83;30.40;;;;;;;0.21;43.16;100532.06;4935199;29;20076;-68
2022/03/22 03:50:59;;;;;;;65.30;30.77;;;;;;;0.19;43.47;100535.97;4932600;29;20027;-68
2022/03/22 03:53:24;;;;;;;71.57;32.63;;;;;;;0.24;43.58;100531.72;4935044;29;20032;-68
2022/03/22 03:55:49;;;;;;;71.53;33.65;;;;;;;0.32;43.59;100538.09;4935199;29;20488;-68
2022/03/22 03:58:15;;;;;;;74.45;33.58;;;;;;;0.41;43.66;100534.31;4935170;29;20039;-68
2022/03/22 04:00:40;;;;;;;81.68;37.05;;;;;;;0.47;43.61;100525.50;4935265;29;20059;-67
2022/03/22 04:03:06;;;;;;;108.97;40.33;;;;;;;0.56;43.35;100527.16;4933709;29;20127;-68
2022/03/22 04:05:31;;;;;;;111.72;41.60;;;;;;;0.63;43.52;100535.38;4934880;29;20360;-68
2022/03/22 04:07:57;;;;;;;139.32;47.60;;;;;;;0.68;43.71;100548.31;4935303;29;20038;-68
2022/03/22 04:10:22;;;;;;;135.23;44.80;;;;;;;0.72;43.46;100544.25;4935515;29;20490;-68
2022/03/22 04:12:47;;;;;;;112.22;42.30;;;;;;;0.78;43.26;100545.41;4934596;29;21713;-68
2022/03/22 04:15:13;;;;;;;106.55;39.95;;;;;;;0.79;43.21;100539.81;4934944;29;20039;-68
2022/03/22 04:17:39;;;;;;;100.32;38.00;;;;;;;0.81;43.46;100542.34;4935039;29;20067;-68
2022/03/22 04:20:05;;;;;;;85.20;35.50;;;;;;;0.81;43.29;100548.56;4951737;29;20020;-68
2022/03/22 04:22:30;;;;;;;81.65;36.50;;;;;;;0.82;43.52;100544.84;4968953;28;20031;-68
2022/03/22 04:24:56;;;;;;;86.93;37.50;;;;;;;0.84;43.30;100553.59;4951168;28;20055;-68
2022/03/22 04:32:49;;;;;;;86.97;37.92;;;;;;;0.91;43.22;100555.59;4934688;29;20594;-68
2022/03/22 04:35:17;;;;;;;89.63;39.85;;;;;;;0.91;43.34;100553.72;4935008;29;20019;-68
2022/03/22 04:37:44;;;;;;;89.65;41.22;;;;;;;0.93;43.21;100557.09;4935100;29;20357;-69
2022/03/22 04:40:11;;;;;;;87.10;40.10;;;;;;;0.95;43.53;100551.50;4933705;29;20020;-68
2022/03/22 04:42:37;;;;;;;83.82;38.63;;;;;;;0.95;43.24;100551.50;4931922;29;20043;-68
2022/03/22 04:45:06;;;;;;;83.35;39.20;;;;;;;0.97;43.35;100550.28;4934434;29;20027;-68
2022/03/22 04:47:32;;;;;;;86.07;40.20;;;;;;;0.96;43.32;100555.91;4932098;29;20031;-69
2022/03/22 04:49:58;;;;;;;100.85;43.15;;;;;;;0.95;43.19;100557.75;4932434;29;20539;-68
2022/03/22 04:57:52;;;;;;;102.20;43.67;;;;;;;0.91;43.25;100569.94;4928331;29;20070;-68
2022/03/22 05:00:18;;;;;;;94.45;41.65;;;;;;;0.83;43.39;100559.19;4933583;29;20459;-68
2022/03/22 05:02:44;;;;;;;89.20;40.63;;;;;;;0.82;43.32;100561.06;4931128;29;20051;-68
2022/03/22 05:05:09;;;;;;;91.63;39.08;;;;;;;0.83;43.54;100565.44;4934439;28;20027;-68
2022/03/22 05:07:35;;;;;;;91.20;40.25;;;;;;;0.82;43.48;100565.59;4934734;29;20112;-68
2022/03/22 05:10:00;;;;;;;83.50;39.17;;;;;;;0.81;43.43;100559.38;4934809;29;20039;-69
2022/03/22 05:12:26;;;;;;;88.20;40.25;;;;;;;0.83;43.80;100567.28;4936081;29;20043;-68
2022/03/22 05:14:51;;;;;;;89.25;40.03;;;;;;;0.84;43.71;100564.41;4953107;28;20027;-68
2022/03/22 05:17:21;;;;;;;91.28;40.70;;;;;;;0.86;43.74;100570.47;4935295;29;20027;-67
2022/03/22 05:19:49;;;;;;;89.68;41.00;;;;;;;0.87;44.10;100572.16;4938311;29;20078;-68
2022/03/22 05:22:15;;;;;;;100.80;45.22;;;;;;;0.91;44.01;100574.50;4933258;29;20479;-68
2022/03/22 05:24:41;;;;;;;100.50;47.17;;;;;;;0.91;43.84;100574.50;4934267;29;20086;-69
2022/03/22 05:27:07;;;;;;;102.47;46.83;;;;;;;0.93;43.95;100570.59;4952104;28;20511;-69
2022/03/22 05:29:32;;;;;;;110.35;52.95;;;;;;;0.97;44.23;100563.81;4936391;29;20040;-68
2022/03/22 05:31:58;;;;;;;130.80;60.80;;;;;;;1.02;43.90;100571.34;4934745;29;20097;-68
2022/03/22 05:34:24;;;;;;;138.52;60.30;;;;;;;1.04;44.31;100574.72;4937428;29;20031;-67
2022/03/22 05:36:49;;;;;;;128.07;54.28;;;;;;;1.07;44.31;100576.22;4948834;28;20079;-68
2022/03/22 05:39:15;;;;;;;121.53;54.17;;;;;;;1.11;44.55;100574.84;4938312;29;20391;-68
2022/03/22 05:41:41;;;;;;;116.35;53.63;;;;;;;1.14;44.40;100569.91;4935227;29;20127;-68
2022/03/22 05:44:06;;;;;;;111.53;51.53;;;;;;;1.17;44.17;100576.84;4937914;29;20064;-68
2022/03/22 05:46:32;;;;;;;127.22;56.05;;;;;;;1.22;44.41;100577.13;4937489;29;20035;-68
2022/03/22 05:48:57;;;;;;;112.00;49.42;;;;;;;1.30;44.61;100576.22;4937690;29;20024;-68
2022/03/22 05:51:23;;;;;;;89.75;45.60;;;;;;;1.38;44.55;100578.00;4935395;29;20027;-68
2022/03/22 05:53:48;;;;;;;91.15;41.20;;;;;;;1.43;45.00;100580.97;4935857;29;20127;-68
2022/03/22 05:56:14;;;;;;;85.45;41.95;;;;;;;1.48;45.01;100576.69;4935951;29;20031;-68
2022/03/22 05:58:40;;;;;;;92.15;41.67;;;;;;;1.57;44.91;100584.72;4937012;29;20039;-69
2022/03/22 06:01:08;;;;;;;88.88;40.67;;;;;;;1.66;44.77;100580.94;4937500;29;20035;-68
2022/03/22 06:03:34;;;;;;;85.63;40.85;;;;;;;1.72;44.89;100591.00;4936800;29;20028;-68
2022/03/22 06:06:00;;;;;;;84.97;38.55;;;;;;;1.82;45.03;100590.72;4937008;29;20031;-69
2022/03/22 06:08:26;;;;;;;90.57;41.17;;;;;;;1.91;44.50;100586.06;4936434;29;20031;-68
2022/03/22 06:10:52;;;;;;;88.45;39.25;;;;;;;1.99;44.54;100587.84;4936207;29;20106;-68
2022/03/22 06:13:17;;;;;;;82.10;36.88;;;;;;;2.05;44.51;100593.34;4947198;29;20546;-69
2022/03/22 06:15:43;;;;;;;82.47;37.17;;;;;;;2.12;44.71;100589.88;4947324;29;20027;-69
2022/03/22 06:18:11;;;;;;;84.78;36.67;;;;;;;2.20;44.98;100582.50;4938241;29;20027;-68
2022/03/22 06:20:38;;;;;;;89.72;41.58;;;;;;;2.30;44.30;100578.66;4956515;28;20023;-68
2022/03/22 06:23:05;;;;;;;87.13;41.60;;;;;;;2.40;45.20;100584.63;4939020;28;20387;-69
2022/03/22 06:25:32;;;;;;;86.93;41.40;;;;;;;2.48;45.00;100576.38;4933701;29;20028;-68
2022/03/22 06:27:58;;;;;;;88.80;40.15;;;;;;;2.59;44.98;100587.75;4935993;29;20031;-68
2022/03/22 06:30:25;;;;;;;73.63;35.63;;;;;;;2.66;44.66;100588.66;4935808;29;20031;-68
2022/03/22 06:32:52;;;;;;;81.63;38.47;;;;;;;2.78;44.42;100586.28;4936339;29;20487;-68
2022/03/22 06:35:23;;;;;;;80.13;36.22;;;;;;;2.90;44.82;100592.03;4936013;29;20031;-69
2022/03/22 06:37:50;;;;;;;71.53;35.08;;;;;;;3.00;45.13;100591.72;4933205;29;20039;-68
2022/03/22 06:40:18;;;;;;;69.75;33.90;;;;;;;3.09;44.68;100588.69;4935659;29;20024;-68
2022/03/22 06:42:44;;;;;;;76.25;35.72;;;;;;;3.14;44.61;100590.81;4936193;29;20063;-68
2022/03/22 06:45:11;;;;;;;74.90;37.30;;;;;;;3.24;44.73;100594.03;4935710;29;20391;-68
2022/03/22 06:47:39;;;;;;;80.05;38.80;;;;;;;3.35;44.47;100597.25;4933371;29;20700;-68
2022/03/22 06:50:06;;;;;;;78.93;36.50;;;;;;;3.45;44.66;100592.34;4935132;29;20079;-68
2022/03/22 06:52:32;;;;;;;71.80;35.60;;;;;;;3.56;44.72;100589.06;4932275;29;20032;-68
2022/03/22 06:54:57;;;;;;;81.18;38.58;;;;;;;3.67;44.71;100595.00;4936477;29;20091;-68
2022/03/22 06:57:23;;;;;;;76.43;35.75;;;;;;;3.77;44.23;100600.06;4935861;29;20035;-68
2022/03/22 06:59:49;;;;;;;79.15;36.05;;;;;;;3.86;44.83;100599.72;4936225;29;20032;-68
2022/03/22 07:02:18;;;;;;;84.00;40.17;;;;;;;3.95;44.67;100596.84;4935842;29;20039;-68
2022/03/22 07:04:44;;;;;;;81.38;38.17;;;;;;;3.99;44.95;100601.69;4936103;29;20111;-69
2022/03/22 07:07:09;;;;;;;80.75;36.58;;;;;;;4.08;45.12;100607.78;4935970;29;20059;-69
2022/03/22 07:09:35;;;;;;;74.93;35.78;;;;;;;4.18;44.33;100604.69;4936664;29;20062;-68
2022/03/22 07:12:00;;;;;;;80.97;37.83;;;;;;;4.28;44.29;100607.06;4933046;29;20405;-69
2022/03/22 07:14:27;;;;;;;82.70;39.05;;;;;;;4.40;44.84;100610.84;4930720;29;20040;-67
2022/03/22 07:16:53;;;;;;;75.35;37.42;;;;;;;4.50;44.66;100615.09;4936020;29;20024;-67
2022/03/22 07:19:21;;;;;;;79.75;38.58;;;;;;;4.61;44.00;100609.06;4935375;29;20067;-67
2022/03/22 07:21:47;;;;;;;67.90;32.72;;;;;;;4.73;44.62;100604.69;4935456;29;20035;-67
2022/03/22 07:24:14;;;;;;;76.93;36.60;;;;;;;4.81;43.71;100605.56;4938228;29;20136;-67
2022/03/22 07:26:40;;;;;;;81.95;38.33;;;;;;;4.86;44.06;100611.22;4934560;29;20031;-68
2022/03/22 07:29:07;;;;;;;79.78;39.08;;;;;;;4.94;43.76;100608.31;4934796;29;20559;-68
2022/03/22 07:31:37;;;;;;;79.97;38.83;;;;;;;5.03;44.12;100606.25;4939147;29;20089;-67
2022/03/22 07:34:07;;;;;;;74.93;36.97;;;;;;;5.11;44.33;100605.19;4933897;29;20016;-67
2022/03/22 07:36:35;;;;;;;73.70;33.88;;;;;;;5.20;43.55;100604.81;4934319;29;20473;-67
2022/03/22 07:39:01;;;;;;;74.30;35.13;;;;;;;5.30;43.56;100609.00;4933829;29;20110;-68
2022/03/22 07:41:26;;;;;;;75.15;36.17;;;;;;;5.40;43.62;100612.13;4934225;29;20088;-67
2022/03/22 07:43:54;;;;;;;73.97;38.35;;;;;;;5.51;43.94;100613.38;4934599;29;20035;-68
2022/03/22 07:46:20;;;;;;;71.22;36.55;;;;;;;5.62;43.70;100611.94;4935355;29;20028;-68
2022/03/22 07:48:46;;;;;;;70.45;36.70;;;;;;;5.76;43.43;100615.47;4934924;29;20040;-67
2022/03/22 07:53:55;;;;;;;61.67;32.05;;;;;;;6.05;43.17;100610.63;4933785;29;20560;-68
2022/03/22 07:56:20;;;;;;;71.25;34.60;;;;;;;6.21;42.49;100612.06;4934462;29;20106;-69
2022/03/22 07:58:45;;;;;;;60.58;32.97;;;;;;;6.33;42.26;100613.06;4934778;29;20020;-76
2022/03/22 08:01:11;;;;;;;69.63;33.63;;;;;;;6.45;41.98;100615.13;4937764;29;20044;-68
2022/03/22 08:03:36;;;;;;;70.40;35.67;;;;;;;6.55;42.28;100621.78;4930710;29;20039;-68
2022/03/22 08:06:02;;;;;;;56.88;29.90;;;;;;;6.69;41.77;100617.13;4932015;29;20055;-68
2022/03/22 08:08:27;;;;;;;66.43;33.65;;;;;;;6.83;41.84;100606.97;4937386;29;20024;-68
2022/03/22 08:10:52;;;;;;;66.32;33.85;;;;;;;6.94;41.65;100608.16;4936544;29;20031;-68
2022/03/22 08:13:18;;;;;;;68.95;34.75;;;;;;;7.06;41.17;100607.47;4937299;29;20547;-68
2022/03/22 08:15:43;;;;;;;58.80;30.77;;;;;;;7.23;41.29;100607.75;4932764;29;20502;-68
2022/03/22 08:18:10;;;;;;;56.20;27.77;;;;;;;7.32;41.20;100602.91;4931543;29;20124;-67
2022/03/22 08:20:36;;;;;;;63.75;32.90;;;;;;;7.46;40.91;100598.97;4934152;29;20051;-68
2022/03/22 08:23:04;;;;;;;60.08;32.28;;;;;;;7.58;40.79;100601.81;4933787;29;20070;-68
2022/03/22 08:25:32;;;;;;;71.47;35.05;;;;;;;7.70;40.72;100594.56;4933608;29;20016;-68
2022/03/22 08:27:59;;;;;;;61.28;30.02;;;;;;;7.80;40.52;100599.50;4927737;29;20059;-68
2022/03/22 08:30:26;;;;;;;67.53;32.90;;;;;;;7.96;40.20;100597.28;4931076;29;20102;-69
2022/03/22 08:32:53;;;;;;;55.38;29.60;;;;;;;8.07;39.57;100588.31;4930949;29;20126;-68
2022/03/22 08:35:21;;;;;;;51.90;27.02;;;;;;;8.17;39.64;100593.25;4933906;29;20035;-68
2022/03/22 08:37:47;;;;;;;56.83;29.08;;;;;;;8.25;39.48;100597.56;4933796;29;20408;-68
2022/03/22 08:40:14;;;;;;;54.42;28.42;;;;;;;8.32;39.12;100592.88;4929961;29;20111;-68
2022/03/22 08:42:44;;;;;;;54.35;27.38;;;;;;;8.40;38.82;100592.56;4930999;29;20031;-67
2022/03/22 08:45:15;;;;;;;47.15;25.38;;;;;;;8.52;38.67;100594.56;4953417;28;20054;-69
2022/03/22 08:47:41;;;;;;;50.72;25.73;;;;;;;8.62;38.78;100603.88;4951308;28;20094;-68
2022/03/22 08:50:09;;;;;;;52.67;27.60;;;;;;;8.75;38.83;100600.13;4930549;29;20027;-68
2022/03/22 08:52:36;;;;;;;45.30;24.25;;;;;;;8.86;37.88;100595.78;4934781;29;20399;-68
2022/03/22 08:55:02;;;;;;;48.33;25.63;;;;;;;8.96;37.80;100599.84;4935882;29;20074;-68
2022/03/22 08:57:28;;;;;;;44.65;23.92;;;;;;;9.00;37.65;100590.13;4936564;28;20039;-67
2022/03/22 08:59:53;;;;;;;41.40;22.98;;;;;;;9.12;37.99;100595.63;4941245;29;20030;-68
2022/03/22 09:02:18;;;;;;;39.33;21.33;;;;;;;9.21;37.42;100589.56;4945582;29;20043;-69
2022/03/22 09:07:38;;;;;;;39.17;20.17;;;;;;;9.43;36.78;100583.53;4906578;29;20035;-69
2022/03/22 09:10:04;;;;;;;31.75;16.13;;;;;;;9.58;35.88;100577.59;4937925;29;20078;-70
2022/03/22 09:12:29;;;;;;;32.38;17.02;;;;;;;9.67;35.37;100576.19;4936288;29;20039;-68
2022/03/22 09:14:55;;;;;;;32.13;18.35;;;;;;;9.71;35.07;100573.78;4936065;29;20032;-67
2022/03/22 09:17:20;;;;;;;31.30;18.02;;;;;;;9.78;34.95;100579.16;4930932;29;20059;-69
2022/03/22 09:19:46;;;;;;;29.58;15.98;;;;;;;9.89;35.02;100572.81;4936388;29;20058;-69
2022/03/22 09:22:14;;;;;;;29.52;15.30;;;;;;;9.96;34.71;100572.72;4935126;29;20047;-69
2022/03/22 09:24:39;;;;;;;22.00;14.30;;;;;;;10.02;34.34;100570.91;4941124;29;20027;-68
2022/03/22 09:27:05;;;;;;;33.88;14.23;;;;;;;10.13;34.17;100565.41;4936724;29;20034;-68
2022/03/22 09:29:30;;;;;;;25.75;14.52;;;;;;;10.27;34.05;100565.16;4936934;29;20047;-67
2022/03/22 09:31:56;;;;;;;23.30;14.73;;;;;;;10.42;34.36;100559.97;4937337;29;20140;-68
2022/03/22 09:34:24;;;;;;;28.40;14.85;;;;;;;10.59;33.68;100561.97;4935774;29;20119;-68
2022/03/22 09:36:49;;;;;;;24.60;13.52;;;;;;;10.71;33.31;100559.16;4933629;29;20032;-68
2022/03/22 09:39:15;;;;;;;24.02;14.10;;;;;;;10.82;33.28;100554.69;4937172;29;20027;-65
2022/03/22 09:41:42;;;;;;;26.35;14.60;;;;;;;10.94;33.30;100551.91;4953162;29;20054;-65
2022/03/22 09:44:09;;;;;;;26.05;15.90;;;;;;;11.00;32.16;100554.50;4951795;28;20480;-66
2022/03/22 09:46:35;;;;;;;23.70;13.57;;;;;;;11.04;31.86;100554.81;4938592;28;20023;-65
2022/03/22 09:49:01;;;;;;;19.15;11.77;;;;;;;11.13;30.78;100552.53;4946348;28;20027;-65
2022/03/22 09:51:45;;;;;;;15.18;10.35;;;;;;;11.17;30.91;100545.44;4934912;29;20083;-67
2022/03/22 09:54:17;;;;;;;21.00;11.98;;;;;;;11.26;31.65;100543.94;4937525;29;20468;-66
2022/03/22 09:56:44;;;;;;;20.02;11.85;;;;;;;11.31;31.44;100541.28;4937979;29;20379;-66
2022/03/22 09:59:10;;;;;;;20.13;12.23;;;;;;;11.42;29.80;100547.75;4949175;28;20744;-65
2022/03/22 10:01:37;;;;;;;21.92;13.38;;;;;;;11.53;30.22;100542.44;4935720;29;20396;-64
2022/03/22 10:04:09;;;;;;;24.38;13.13;;;;;;;11.65;30.47;100539.56;4934915;29;20027;-65
2022/03/22 10:06:35;;;;;;;20.08;12.40;;;;;;;11.72;30.06;100538.34;4931942;29;20027;-65
2022/03/22 10:09:04;;;;;;;18.80;11.35;;;;;;;11.79;30.22;100540.88;4935450;29;20086;-65
2022/03/22 10:11:35;;;;;;;16.80;9.80;;;;;;;11.85;30.25;100528.88;4936325;29;20035;-67
2022/03/22 10:14:01;;;;;;;18.77;11.45;;;;;;;11.91;29.10;100532.53;4952369;28;20026;-66
2022/03/22 10:16:27;;;;;;;20.48;11.15;;;;;;;12.02;29.14;100530.81;4935069;29;20023;-66
2022/03/22 10:18:52;;;;;;;18.98;11.50;;;;;;;12.20;29.62;100530.47;4940245;29;20175;-66
2022/03/22 10:21:18;;;;;;;22.75;11.77;;;;;;;12.47;29.45;100535.19;4936527;29;20513;-65
2022/03/22 10:23:54;;;;;;;18.73;11.93;;;;;;;12.61;29.73;100530.13;4949782;29;20497;-66
2022/03/22 10:26:20;;;;;;;21.73;11.57;;;;;;;12.69;29.09;100525.22;4931916;29;20452;-65
2022/03/22 10:28:51;;;;;;;18.55;11.13;;;;;;;12.73;29.25;100527.22;4942291;29;20114;-67
2022/03/22 10:31:16;;;;;;;18.70;11.30;;;;;;;12.78;28.68;100520.91;4940214;28;20107;-66
2022/03/22 10:33:50;;;;;;;21.85;12.50;;;;;;;12.90;28.90;100521.59;4941945;29;20107;-67
2022/03/22 10:36:18;;;;;;;21.35;13.10;;;;;;;13.03;28.72;100514.81;4944131;29;20456;-67
2022/03/22 10:38:57;;;;;;;18.95;11.65;;;;;;;13.15;28.83;100519.31;4930437;29;20024;-67
2022/03/22 10:41:25;;;;;;;20.40;12.63;;;;;;;13.25;28.55;100516.63;4935775;29;20036;-66
2022/03/22 10:44:07;;;;;;;22.80;13.05;;;;;;;13.36;28.31;100514.81;4935792;29;20027;-65
2022/03/22 10:46:34;;;;;;;21.25;12.35;;;;;;;13.43;28.18;100509.94;4934114;29;20035;-66
2022/03/22 10:49:12;;;;;;;18.52;12.07;;;;;;;13.50;28.08;100507.75;4934679;29;20484;-66
2022/03/22 10:51:44;;;;;;;20.40;11.95;;;;;;;13.60;27.48;100509.75;4936013;29;20032;-66
2022/03/22 10:54:17;;;;;;;19.73;11.55;;;;;;;13.63;27.60;100509.22;4935833;29;20102;-67
2022/03/22 10:56:54;;;;;;;24.05;12.20;;;;;;;13.70;27.46;100504.28;4949263;29;20047;-67
2022/03/22 10:59:23;;;;;;;23.52;13.50;;;;;;;13.82;27.06;100503.25;4943092;29;20410;-65
2022/03/22 11:01:50;;;;;;;23.75;14.90;;;;;;;13.87;26.75;100507.97;4936450;29;20044;-67
2022/03/22 11:04:16;;;;;;;25.73;13.38;;;;;;;13.86;26.07;100498.06;4936833;28;20130;-66
2022/03/22 11:06:47;;;;;;;20.65;12.48;;;;;;;13.84;26.22;100501.06;4946177;28;20071;-66
2022/03/22 11:09:14;;;;;;;17.75;11.52;;;;;;;13.90;26.65;100488.97;4930503;29;20036;-68
2022/03/22 11:11:40;;;;;;;20.67;11.43;;;;;;;14.01;26.85;100487.06;4945767;29;20115;-67
2022/03/22 11:14:06;;;;;;;19.05;10.38;;;;;;;14.12;27.05;100486.03;4935793;29;20108;-67
2022/03/22 11:16:34;;;;;;;24.52;15.55;;;;;;;14.28;27.09;100486.06;4934524;29;20036;-68
2022/03/22 11:19:01;;;;;;;31.45;16.52;;;;;;;14.41;27.82;100477.28;4935203;29;20075;-67
2022/03/22 11:21:29;;;;;;;24.55;15.70;;;;;;;14.57;27.87;100472.59;4934495;29;20032;-68
2022/03/22 11:24:09;;;;;;;26.67;16.08;;;;;;;14.74;27.64;100469.63;4935389;29;20038;-66
2022/03/22 11:26:43;;;;;;;29.17;16.50;;;;;;;14.86;27.63;100474.06;4932904;29;20034;-67
2022/03/22 11:29:11;;;;;;;22.90;14.07;;;;;;;14.98;27.34;100463.56;4932645;29;20028;-68
2022/03/22 11:31:37;;;;;;;25.17;14.15;;;;;;;15.13;27.67;100465.50;4934366;29;20087;-68
2022/03/22 11:34:12;;;;;;;25.00;14.10;;;;;;;15.17;27.28;100458.31;4934107;29;20031;-66
2022/03/22 11:36:44;;;;;;;24.00;14.52;;;;;;;15.11;26.66;100453.88;4946193;29;20113;-67
2022/03/22 11:39:15;;;;;;;22.45;14.85;;;;;;;15.15;26.25;100445.84;4945361;28;20122;-67
2022/03/22 11:44:36;;;;;;;26.70;14.63;;;;;;;15.51;26.99;100448.56;4934562;29;20043;-67